This is the latest recevied weather packets stored in our database for station/object KB4NWJ. If no packets are shown the sender has not sent any weather packets the latest 10 day(s).
| Time | Temp. | Humidity | Pressure | Rain* | Wind** | Luminosity | Snow |
|---|---|---|---|---|---|---|---|
| 1777849230 | 19.44° C | 45% | 1018.4 hPa | 0 mm | - | 34 W/m² | - |
| 1777848927 | 19.44° C | 43% | 1018.3 hPa | 0 mm | - | 36 W/m² | - |
| 1777848627 | 20° C | 43% | 1018.4 hPa | 0 mm | - | 37 W/m² | - |
| 1777848325 | 20.56° C | 39% | 1018.4 hPa | 0 mm | - | 146 W/m² | - |
| 1777848022 | 21.11° C | 42% | 1018.1 hPa | 0 mm | - | 157 W/m² | - |
| 1777847720 | 20.56° C | 44% | 1018.3 hPa | 0 mm | - | 183 W/m² | - |
| 1777847415 | 20.56° C | 42% | 1018.4 hPa | 0 mm | - | 190 W/m² | - |
| 1777847114 | 21.67° C | 43% | 1018.2 hPa | 0 mm | - | 203 W/m² | - |
| 1777846812 | 21.67° C | 40% | 1018.4 hPa | 0 mm | - | 237 W/m² | - |
| 1777846510 | 21.11° C | 40% | 1018.3 hPa | 0 mm | - | 251 W/m² | - |
| 1777846207 | 21.67° C | 38% | 1018.5 hPa | 0 mm | - | 266 W/m² | - |
| 1777845903 | 22.22° C | 41% | 1018.2 hPa | 0 mm | - | 285 W/m² | - |
| 1777845600 | 22.22° C | 39% | 1018.2 hPa | 0 mm | - | 299 W/m² | - |
| 1777845297 | 22.22° C | 40% | 1018.6 hPa | 0 mm | - | 295 W/m² | - |
| 1777844994 | 22.22° C | 42% | 1018.2 hPa | 0 mm | - | 295 W/m² | - |
| 1777844692 | 21.11° C | 42% | 1018.6 hPa | 0 mm | - | 330 W/m² | - |
| 1777844389 | 22.22° C | 41% | 1018.6 hPa | 0 mm | - | 342 W/m² | - |
| 1777844087 | 21.67° C | 40% | 1018.6 hPa | 0 mm | - | 362 W/m² | - |
| 1777843783 | 21.11° C | 42% | 1018.6 hPa | 0 mm | - | 296 W/m² | - |
| 1777843481 | 21.11° C | 40% | 1018.6 hPa | 0 mm | - | 310 W/m² | - |
| 1777843178 | 20.56° C | 38% | 1018.5 hPa | 0 mm | - | 404 W/m² | - |
| 1777842875 | 21.11° C | 40% | 1018.7 hPa | 0 mm | - | 408 W/m² | - |
| 1777842570 | 21.11° C | 36% | 1018.6 hPa | 0 mm | - | 440 W/m² | - |
| 1777842267 | 20.56° C | 39% | 1018.9 hPa | 0 mm | - | 437 W/m² | - |
| 1777841962 | 22.22° C | 37% | 1019 hPa | 0 mm | - | 478 W/m² | - |
* Rain latest hour (hover to see other rain measurements)
** Current wind speed in m/s (hover to see current wind gust speed)